createdAt,value
2022-11-20T00:01:41.435Z,19.05
2022-11-20T00:06:42.752Z,15.00
2022-11-20T00:11:44.103Z,13.05
2022-11-20T00:16:45.427Z,16.42
2022-11-20T00:21:47.069Z,15.77
2022-11-20T00:26:48.377Z,17.67
2022-11-20T00:31:49.746Z,14.23
2022-11-20T00:36:51.043Z,16.00
2022-11-20T00:41:52.329Z,16.00
2022-11-20T00:46:53.646Z,15.93
2022-11-20T00:51:54.994Z,15.82
2022-11-20T00:56:56.344Z,17.02
2022-11-20T01:01:57.636Z,15.10
2022-11-20T01:06:59.048Z,19.08
2022-11-20T01:12:01.145Z,15.95
2022-11-20T01:17:02.468Z,15.77
2022-11-20T01:22:03.806Z,17.83
2022-11-20T01:27:05.124Z,17.25
2022-11-20T01:32:06.499Z,15.85
2022-11-20T01:37:07.843Z,18.10
2022-11-20T01:42:27.839Z,17.23
2022-11-20T01:47:40.566Z,18.88
2022-11-20T01:52:46.539Z,16.23
2022-11-20T01:57:49.272Z,17.38
2022-11-20T02:02:58.548Z,16.63
2022-11-20T02:08:01.252Z,19.27
2022-11-20T02:13:21.732Z,16.63
2022-11-20T02:18:24.669Z,16.02
2022-11-20T02:23:57.178Z,16.52
2022-11-20T02:29:00.062Z,16.38
2022-11-20T02:34:01.438Z,16.33
2022-11-20T02:39:04.329Z,16.95
2022-11-20T02:44:06.527Z,16.63
2022-11-20T02:49:07.895Z,14.25
2022-11-20T02:54:09.258Z,16.80
2022-11-20T02:59:10.913Z,14.50
2022-11-20T03:04:12.232Z,15.00
2022-11-20T03:09:13.901Z,15.77
2022-11-20T03:14:15.531Z,16.67
2022-11-20T03:19:16.827Z,17.55
2022-11-20T03:24:18.223Z,18.77
2022-11-20T03:29:19.943Z,18.27
2022-11-20T03:34:21.514Z,16.85
2022-11-20T03:39:23.092Z,17.90
2022-11-20T03:44:24.745Z,18.65
2022-11-20T03:49:26.096Z,17.20
2022-11-20T03:54:27.404Z,19.27
2022-11-20T03:59:28.737Z,18.80
2022-11-20T04:04:30.090Z,18.83
2022-11-20T04:09:31.498Z,17.33
2022-11-20T04:14:32.977Z,18.33
2022-11-20T04:19:34.315Z,17.13
2022-11-20T04:24:35.676Z,17.38
2022-11-20T04:29:37.012Z,15.93
2022-11-20T04:34:38.410Z,17.67
2022-11-20T04:39:39.758Z,17.90
2022-11-20T04:44:41.065Z,17.52
2022-11-20T04:49:42.444Z,16.30
2022-11-20T04:54:43.820Z,18.25
2022-11-20T04:59:45.142Z,16.70
2022-11-20T05:04:47.149Z,16.50
2022-11-20T05:09:48.477Z,17.65
2022-11-20T05:14:49.817Z,18.48
2022-11-20T05:19:53.220Z,18.25
2022-11-20T05:24:54.697Z,18.33
2022-11-20T05:29:56.170Z,21.90
2022-11-20T05:34:57.461Z,24.15
2022-11-20T05:39:58.949Z,18.25
2022-11-20T05:45:01.663Z,17.15
2022-11-20T05:50:03.163Z,18.73
2022-11-20T05:55:04.836Z,21.77
2022-11-20T06:00:06.982Z,20.02
2022-11-20T06:05:08.750Z,19.65
2022-11-20T06:10:10.497Z,18.05
2022-11-20T06:15:11.928Z,19.30
2022-11-20T06:20:13.502Z,20.42
2022-11-20T06:25:15.068Z,18.80
2022-11-20T06:30:16.492Z,21.40
2022-11-20T06:35:17.804Z,24.70
2022-11-20T06:40:19.096Z,24.40
2022-11-20T06:45:20.456Z,22.58
2022-11-20T06:50:21.764Z,23.50
2022-11-20T06:55:23.125Z,24.10
2022-11-20T07:00:24.993Z,25.45
2022-11-20T07:05:26.294Z,27.42
2022-11-20T07:10:27.962Z,27.25
2022-11-20T07:15:29.382Z,29.35
2022-11-20T07:20:30.798Z,28.58
2022-11-20T07:25:32.193Z,29.35
2022-11-20T07:30:33.544Z,30.27
2022-11-20T07:35:34.877Z,28.65
2022-11-20T07:40:36.260Z,28.98
2022-11-20T07:45:37.688Z,26.83
2022-11-20T07:50:39.052Z,25.92
2022-11-20T07:55:40.697Z,24.38
2022-11-20T08:00:42.256Z,25.95
2022-11-20T08:05:43.684Z,26.50
2022-11-20T08:10:45.063Z,25.85
2022-11-20T08:15:51.174Z,24.55
2022-11-20T08:20:52.510Z,24.60
2022-11-20T08:25:53.832Z,25.02
2022-11-20T08:31:00.688Z,24.27
2022-11-20T08:36:03.569Z,27.65
2022-11-20T08:41:24.444Z,28.55
2022-11-20T08:46:27.473Z,27.20
2022-11-20T08:51:28.846Z,28.60
2022-11-20T08:56:30.427Z,28.90
2022-11-20T09:01:31.842Z,26.60
2022-11-20T09:06:33.171Z,27.63
2022-11-20T09:11:36.038Z,26.00
2022-11-20T09:16:37.432Z,29.95
2022-11-20T09:21:38.738Z,29.02
2022-11-20T09:26:40.060Z,27.25
2022-11-20T09:31:41.478Z,30.42
2022-11-20T09:36:42.993Z,30.63
2022-11-20T09:41:50.618Z,36.20
2022-11-20T09:47:10.772Z,55.17
2022-11-20T09:52:19.468Z,28.13
2022-11-20T09:57:30.212Z,73.45
2022-11-20T10:02:41.531Z,30.58
2022-11-20T10:08:11.797Z,41.35
2022-11-20T10:13:28.732Z,51.38
2022-11-20T10:18:52.595Z,26.40
2022-11-20T10:24:04.413Z,26.70
2022-11-20T10:29:14.796Z,23.42
2022-11-20T10:34:29.634Z,24.95
2022-11-20T10:39:41.077Z,23.48
2022-11-20T10:45:05.723Z,22.60
2022-11-20T10:50:18.993Z,25.08
2022-11-20T10:55:41.794Z,22.48
2022-11-20T11:00:43.282Z,20.23
2022-11-20T11:06:07.933Z,21.17
2022-11-20T11:11:21.858Z,21.30
2022-11-20T11:16:25.658Z,22.15
2022-11-20T11:21:27.658Z,24.15
2022-11-20T11:26:29.966Z,23.83
2022-11-20T11:31:34.365Z,20.10
2022-11-20T11:36:36.688Z,20.73
2022-11-20T11:41:38.478Z,21.98
2022-11-20T11:46:44.919Z,22.63
2022-11-20T11:52:18.183Z,23.15
2022-11-20T11:57:37.690Z,22.70
2022-11-20T12:02:42.052Z,21.73
2022-11-20T12:07:54.947Z,23.88
2022-11-20T12:13:03.067Z,21.90
2022-11-20T12:18:15.525Z,23.73
2022-11-20T12:23:36.808Z,26.52
2022-11-20T12:28:57.994Z,25.05
2022-11-20T12:34:13.113Z,24.17
2022-11-20T12:39:28.818Z,31.60
2022-11-20T12:45:11.737Z,28.45
2022-11-20T12:50:29.283Z,27.10
2022-11-20T12:55:52.530Z,26.88
2022-11-20T13:01:05.872Z,27.33
2022-11-20T13:06:15.191Z,28.52
2022-11-20T13:11:28.431Z,27.27
2022-11-20T13:16:54.787Z,31.10
2022-11-20T13:21:56.212Z,28.08
2022-11-20T13:27:13.733Z,31.95
2022-11-20T13:32:18.527Z,27.63
2022-11-20T13:37:37.764Z,21.52
2022-11-20T13:43:20.656Z,22.75
2022-11-20T13:48:24.411Z,25.33
2022-11-20T13:54:02.709Z,21.40
2022-11-20T13:59:27.264Z,20.08
2022-11-20T14:04:36.029Z,19.73
2022-11-20T14:09:37.402Z,19.23
2022-11-20T14:14:48.963Z,20.50
2022-11-20T14:19:51.980Z,18.70
2022-11-20T14:25:13.591Z,17.88
2022-11-20T14:30:17.639Z,19.17
2022-11-20T14:35:24.890Z,15.23
2022-11-20T14:40:29.372Z,17.23
2022-11-20T14:45:30.839Z,16.38
2022-11-20T14:50:32.230Z,17.38
2022-11-20T14:55:36.418Z,17.60
2022-11-20T15:00:38.117Z,16.20
2022-11-20T15:05:48.871Z,16.17
2022-11-20T15:10:52.295Z,16.50
2022-11-20T15:15:56.093Z,16.92
2022-11-20T15:20:59.692Z,16.50
2022-11-20T15:26:01.078Z,19.17
2022-11-20T15:31:03.923Z,17.42
2022-11-20T15:36:05.619Z,17.02
2022-11-20T15:41:07.781Z,16.13
2022-11-20T15:46:16.301Z,17.38
2022-11-20T15:51:20.632Z,18.55
2022-11-20T15:56:22.198Z,16.52
2022-11-20T16:01:23.672Z,16.95
2022-11-20T16:06:25.006Z,17.02
2022-11-20T16:11:26.311Z,17.15
2022-11-20T16:16:34.064Z,16.00
2022-11-20T16:21:35.801Z,18.20
2022-11-20T16:26:37.379Z,16.05
2022-11-20T16:31:38.781Z,17.27
2022-11-20T16:36:42.310Z,15.88
2022-11-20T16:41:43.637Z,21.38
2022-11-20T16:46:45.034Z,23.63
2022-11-20T16:51:46.881Z,24.83
2022-11-20T16:56:48.428Z,21.92
2022-11-20T17:01:49.993Z,28.25
2022-11-20T17:06:51.485Z,17.08
2022-11-20T17:11:52.921Z,57.08
2022-11-20T17:16:54.286Z,31.25
2022-11-20T17:21:55.678Z,23.20
2022-11-20T17:26:56.972Z,18.27
2022-11-20T17:31:58.647Z,15.82
2022-11-20T17:37:00.029Z,14.90
2022-11-20T17:42:20.005Z,16.55
2022-11-20T17:47:21.458Z,16.65
2022-11-20T17:52:23.001Z,18.05
2022-11-20T17:57:43.306Z,16.15
2022-11-20T18:02:44.699Z,16.75
2022-11-20T18:07:46.087Z,16.45
2022-11-20T18:12:47.504Z,17.13
2022-11-20T18:17:48.900Z,22.52
2022-11-20T18:22:50.203Z,16.85
2022-11-20T18:27:51.491Z,19.02
2022-11-20T18:32:52.886Z,13.65
2022-11-20T18:37:54.456Z,16.80
2022-11-20T18:43:14.685Z,14.32
2022-11-20T18:48:16.009Z,13.38
2022-11-20T18:53:17.282Z,10.00
2022-11-20T18:58:18.621Z,9.48
2022-11-20T19:03:19.962Z,8.60
2022-11-20T19:08:21.273Z,6.22
2022-11-20T19:13:22.820Z,4.90
2022-11-20T19:18:24.247Z,7.78
2022-11-20T19:23:25.591Z,5.75
2022-11-20T19:28:29.951Z,4.53
2022-11-20T19:33:32.255Z,4.50
2022-11-20T19:38:33.847Z,3.53
2022-11-20T19:43:35.706Z,5.43
2022-11-20T19:48:38.252Z,5.30
2022-11-20T19:53:39.612Z,5.03
2022-11-20T19:58:42.102Z,4.78
2022-11-20T20:03:44.913Z,4.53
2022-11-20T20:08:47.051Z,4.65
2022-11-20T20:13:48.426Z,5.43
2022-11-20T20:18:49.794Z,4.32
2022-11-20T20:23:53.579Z,3.22
2022-11-20T20:28:55.598Z,2.75
2022-11-20T20:33:57.869Z,3.45
2022-11-20T20:38:59.645Z,5.40
2022-11-20T20:44:20.121Z,4.32
2022-11-20T20:49:22.048Z,4.53
2022-11-20T20:54:23.570Z,3.35
2022-11-20T20:59:25.444Z,2.38
2022-11-20T21:04:27.058Z,3.08
2022-11-20T21:09:28.814Z,2.22
2022-11-20T21:14:30.547Z,2.35
2022-11-20T21:19:32.161Z,2.20
2022-11-20T21:24:35.629Z,2.72
2022-11-20T21:29:36.929Z,2.78
2022-11-20T21:34:38.265Z,1.15
2022-11-20T21:39:50.488Z,2.50
2022-11-20T21:44:51.849Z,2.85
2022-11-20T21:49:53.148Z,2.55
2022-11-20T21:54:54.483Z,1.33
2022-11-20T21:59:55.773Z,1.05
2022-11-20T22:04:57.127Z,3.13
2022-11-20T22:09:58.439Z,1.38
2022-11-20T22:14:59.753Z,1.05
2022-11-20T22:20:01.039Z,2.83
2022-11-20T22:25:02.362Z,2.03
2022-11-20T22:30:04.001Z,3.47
2022-11-20T22:35:05.609Z,2.33
2022-11-20T22:40:08.694Z,2.28
2022-11-20T22:45:10.864Z,1.70
2022-11-20T22:50:12.437Z,2.67
2022-11-20T22:55:16.438Z,2.15
2022-11-20T23:00:18.586Z,2.50
2022-11-20T23:05:19.912Z,2.85
2022-11-20T23:10:21.225Z,2.75
2022-11-20T23:15:22.543Z,1.88
2022-11-20T23:20:23.988Z,2.42
2022-11-20T23:25:25.389Z,5.40
2022-11-20T23:30:26.683Z,2.13
2022-11-20T23:35:27.998Z,4.68
2022-11-20T23:40:29.491Z,2.30
2022-11-20T23:45:30.841Z,3.08
2022-11-20T23:50:32.165Z,2.72
2022-11-20T23:55:33.868Z,4.00
